sensor_id;sensor_type;location;lat;lon;timestamp;P1;durP1;ratioP1;P2;durP2;ratioP2
14516;SDS011;7344;50.864;4.362;2023-03-13T00:01:22;13.63;;;4.67;;
14516;SDS011;7344;50.864;4.362;2023-03-13T00:04:11;16.87;;;5.40;;
14516;SDS011;7344;50.864;4.362;2023-03-13T00:06:37;11.33;;;4.43;;
14516;SDS011;7344;50.864;4.362;2023-03-13T00:09:04;14.57;;;5.33;;
14516;SDS011;7344;50.864;4.362;2023-03-13T00:11:34;14.80;;;5.93;;
14516;SDS011;7344;50.864;4.362;2023-03-13T00:14:01;11.43;;;5.40;;
14516;SDS011;7344;50.864;4.362;2023-03-13T00:16:27;17.73;;;5.70;;
14516;SDS011;7344;50.864;4.362;2023-03-13T00:18:54;13.47;;;5.30;;
14516;SDS011;7344;50.864;4.362;2023-03-13T00:21:22;10.70;;;5.23;;
14516;SDS011;7344;50.864;4.362;2023-03-13T00:23:49;13.23;;;5.40;;
14516;SDS011;7344;50.864;4.362;2023-03-13T00:26:16;17.17;;;5.27;;
14516;SDS011;7344;50.864;4.362;2023-03-13T00:28:43;12.30;;;5.30;;
14516;SDS011;7344;50.864;4.362;2023-03-13T00:31:11;10.57;;;4.50;;
14516;SDS011;7344;50.864;4.362;2023-03-13T00:33:40;13.87;;;5.63;;
14516;SDS011;7344;50.864;4.362;2023-03-13T00:36:11;14.30;;;5.20;;
14516;SDS011;7344;50.864;4.362;2023-03-13T00:38:42;10.43;;;5.30;;
14516;SDS011;7344;50.864;4.362;2023-03-13T00:41:11;12.47;;;5.17;;
14516;SDS011;7344;50.864;4.362;2023-03-13T00:43:39;12.20;;;5.67;;
14516;SDS011;7344;50.864;4.362;2023-03-13T00:46:06;14.50;;;6.30;;
14516;SDS011;7344;50.864;4.362;2023-03-13T00:48:32;9.70;;;4.73;;
14516;SDS011;7344;50.864;4.362;2023-03-13T00:50:58;13.30;;;5.70;;
14516;SDS011;7344;50.864;4.362;2023-03-13T00:53:25;9.83;;;5.40;;
14516;SDS011;7344;50.864;4.362;2023-03-13T00:58:24;9.83;;;4.87;;
14516;SDS011;7344;50.864;4.362;2023-03-13T01:00:54;7.13;;;5.40;;
14516;SDS011;7344;50.864;4.362;2023-03-13T01:03:21;13.03;;;5.20;;
14516;SDS011;7344;50.864;4.362;2023-03-13T01:05:55;11.70;;;5.50;;
14516;SDS011;7344;50.864;4.362;2023-03-13T01:08:27;10.33;;;5.80;;
14516;SDS011;7344;50.864;4.362;2023-03-13T01:10:59;10.13;;;6.17;;
14516;SDS011;7344;50.864;4.362;2023-03-13T01:13:27;10.73;;;6.83;;
14516;SDS011;7344;50.864;4.362;2023-03-13T01:15:54;11.67;;;7.13;;
14516;SDS011;7344;50.864;4.362;2023-03-13T01:18:20;11.20;;;7.20;;
14516;SDS011;7344;50.864;4.362;2023-03-13T01:20:45;11.67;;;7.77;;
14516;SDS011;7344;50.864;4.362;2023-03-13T01:23:11;12.57;;;7.47;;
14516;SDS011;7344;50.864;4.362;2023-03-13T01:25:37;14.87;;;8.07;;
14516;SDS011;7344;50.864;4.362;2023-03-13T01:28:03;10.00;;;7.63;;
14516;SDS011;7344;50.864;4.362;2023-03-13T01:30:29;14.63;;;8.20;;
14516;SDS011;7344;50.864;4.362;2023-03-13T01:32:54;11.43;;;7.93;;
14516;SDS011;7344;50.864;4.362;2023-03-13T01:35:20;10.50;;;8.17;;
14516;SDS011;7344;50.864;4.362;2023-03-13T01:37:45;14.53;;;8.07;;
14516;SDS011;7344;50.864;4.362;2023-03-13T01:40:11;11.13;;;7.60;;
14516;SDS011;7344;50.864;4.362;2023-03-13T01:42:54;12.07;;;7.53;;
14516;SDS011;7344;50.864;4.362;2023-03-13T01:48:34;11.67;;;8.40;;
14516;SDS011;7344;50.864;4.362;2023-03-13T01:51:17;11.60;;;7.80;;
14516;SDS011;7344;50.864;4.362;2023-03-13T01:54:07;9.20;;;7.47;;
14516;SDS011;7344;50.864;4.362;2023-03-13T01:59:25;10.03;;;8.27;;
14516;SDS011;7344;50.864;4.362;2023-03-13T02:02:04;12.47;;;7.83;;
14516;SDS011;7344;50.864;4.362;2023-03-13T02:04:33;9.40;;;7.27;;
14516;SDS011;7344;50.864;4.362;2023-03-13T02:07:02;7.77;;;6.73;;
14516;SDS011;7344;50.864;4.362;2023-03-13T02:09:31;10.97;;;7.37;;
14516;SDS011;7344;50.864;4.362;2023-03-13T02:12:08;10.60;;;7.53;;
14516;SDS011;7344;50.864;4.362;2023-03-13T02:14:37;7.30;;;6.60;;
14516;SDS011;7344;50.864;4.362;2023-03-13T02:17:08;9.90;;;6.83;;
14516;SDS011;7344;50.864;4.362;2023-03-13T02:19:47;8.20;;;7.20;;
14516;SDS011;7344;50.864;4.362;2023-03-13T02:22:23;6.57;;;5.97;;
14516;SDS011;7344;50.864;4.362;2023-03-13T02:24:53;6.27;;;5.60;;
14516;SDS011;7344;50.864;4.362;2023-03-13T02:27:33;8.23;;;5.67;;
14516;SDS011;7344;50.864;4.362;2023-03-13T02:29:59;6.13;;;5.60;;
14516;SDS011;7344;50.864;4.362;2023-03-13T02:32:25;5.80;;;5.20;;
14516;SDS011;7344;50.864;4.362;2023-03-13T02:34:55;5.80;;;5.23;;
14516;SDS011;7344;50.864;4.362;2023-03-13T02:37:25;5.47;;;4.97;;
14516;SDS011;7344;50.864;4.362;2023-03-13T02:39:54;7.10;;;5.13;;
14516;SDS011;7344;50.864;4.362;2023-03-13T02:42:21;5.53;;;5.03;;
14516;SDS011;7344;50.864;4.362;2023-03-13T02:44:48;6.33;;;5.10;;
14516;SDS011;7344;50.864;4.362;2023-03-13T02:47:19;5.53;;;5.00;;
14516;SDS011;7344;50.864;4.362;2023-03-13T02:49:48;6.63;;;4.70;;
14516;SDS011;7344;50.864;4.362;2023-03-13T02:52:34;7.27;;;5.60;;
14516;SDS011;7344;50.864;4.362;2023-03-13T02:55:05;7.67;;;4.73;;
14516;SDS011;7344;50.864;4.362;2023-03-13T02:57:34;7.03;;;4.80;;
14516;SDS011;7344;50.864;4.362;2023-03-13T03:00:00;6.40;;;4.30;;
14516;SDS011;7344;50.864;4.362;2023-03-13T03:02:26;6.60;;;4.73;;
14516;SDS011;7344;50.864;4.362;2023-03-13T03:04:51;4.60;;;4.20;;
14516;SDS011;7344;50.864;4.362;2023-03-13T03:07:17;5.13;;;4.43;;
14516;SDS011;7344;50.864;4.362;2023-03-13T03:09:43;4.27;;;3.87;;
14516;SDS011;7344;50.864;4.362;2023-03-13T03:12:08;5.07;;;4.10;;
14516;SDS011;7344;50.864;4.362;2023-03-13T03:14:34;6.80;;;4.37;;
14516;SDS011;7344;50.864;4.362;2023-03-13T03:17:00;4.90;;;4.00;;
14516;SDS011;7344;50.864;4.362;2023-03-13T03:19:25;4.57;;;3.80;;
14516;SDS011;7344;50.864;4.362;2023-03-13T03:21:51;4.00;;;3.60;;
14516;SDS011;7344;50.864;4.362;2023-03-13T03:24:17;4.90;;;4.00;;
14516;SDS011;7344;50.864;4.362;2023-03-13T03:26:45;4.27;;;3.87;;
14516;SDS011;7344;50.864;4.362;2023-03-13T03:29:11;5.13;;;3.80;;
14516;SDS011;7344;50.864;4.362;2023-03-13T03:31:39;3.60;;;3.30;;
14516;SDS011;7344;50.864;4.362;2023-03-13T03:34:05;4.27;;;3.40;;
14516;SDS011;7344;50.864;4.362;2023-03-13T03:36:30;3.70;;;3.40;;
14516;SDS011;7344;50.864;4.362;2023-03-13T03:38:56;5.07;;;3.70;;
14516;SDS011;7344;50.864;4.362;2023-03-13T03:41:22;3.97;;;3.10;;
14516;SDS011;7344;50.864;4.362;2023-03-13T03:43:50;3.83;;;3.53;;
14516;SDS011;7344;50.864;4.362;2023-03-13T03:46:16;4.70;;;3.50;;
14516;SDS011;7344;50.864;4.362;2023-03-13T03:48:45;3.83;;;3.10;;
14516;SDS011;7344;50.864;4.362;2023-03-13T03:51:10;4.60;;;3.17;;
14516;SDS011;7344;50.864;4.362;2023-03-13T03:53:36;3.67;;;3.03;;
14516;SDS011;7344;50.864;4.362;2023-03-13T03:56:01;5.80;;;3.80;;
14516;SDS011;7344;50.864;4.362;2023-03-13T03:58:27;5.10;;;3.20;;
14516;SDS011;7344;50.864;4.362;2023-03-13T04:00:53;5.57;;;3.53;;
14516;SDS011;7344;50.864;4.362;2023-03-13T04:03:21;4.57;;;3.40;;
14516;SDS011;7344;50.864;4.362;2023-03-13T04:05:47;3.77;;;3.23;;
14516;SDS011;7344;50.864;4.362;2023-03-13T04:08:15;5.07;;;3.17;;
14516;SDS011;7344;50.864;4.362;2023-03-13T04:10:41;4.13;;;3.20;;
14516;SDS011;7344;50.864;4.362;2023-03-13T04:13:07;3.30;;;2.90;;
14516;SDS011;7344;50.864;4.362;2023-03-13T04:15:33;3.43;;;2.87;;
14516;SDS011;7344;50.864;4.362;2023-03-13T04:17:58;4.87;;;2.80;;
14516;SDS011;7344;50.864;4.362;2023-03-13T04:20:24;4.00;;;2.97;;
14516;SDS011;7344;50.864;4.362;2023-03-13T04:22:50;7.90;;;3.10;;
14516;SDS011;7344;50.864;4.362;2023-03-13T04:25:15;5.97;;;3.23;;
14516;SDS011;7344;50.864;4.362;2023-03-13T04:27:44;4.07;;;3.07;;
14516;SDS011;7344;50.864;4.362;2023-03-13T04:30:10;4.77;;;3.07;;
14516;SDS011;7344;50.864;4.362;2023-03-13T04:32:36;4.27;;;3.13;;
14516;SDS011;7344;50.864;4.362;2023-03-13T04:35:01;5.97;;;2.83;;
14516;SDS011;7344;50.864;4.362;2023-03-13T04:37:27;4.40;;;2.70;;
14516;SDS011;7344;50.864;4.362;2023-03-13T04:39:53;6.60;;;3.00;;
14516;SDS011;7344;50.864;4.362;2023-03-13T04:42:18;5.57;;;2.90;;
14516;SDS011;7344;50.864;4.362;2023-03-13T04:44:44;5.40;;;2.63;;
14516;SDS011;7344;50.864;4.362;2023-03-13T04:47:09;4.57;;;2.93;;
14516;SDS011;7344;50.864;4.362;2023-03-13T04:49:35;5.03;;;3.20;;
14516;SDS011;7344;50.864;4.362;2023-03-13T04:52:01;6.30;;;3.40;;
14516;SDS011;7344;50.864;4.362;2023-03-13T04:54:26;5.50;;;3.10;;
14516;SDS011;7344;50.864;4.362;2023-03-13T04:56:52;6.13;;;3.03;;
14516;SDS011;7344;50.864;4.362;2023-03-13T04:59:21;7.73;;;3.30;;
14516;SDS011;7344;50.864;4.362;2023-03-13T05:01:46;4.37;;;3.03;;
14516;SDS011;7344;50.864;4.362;2023-03-13T05:04:14;6.37;;;3.10;;
14516;SDS011;7344;50.864;4.362;2023-03-13T05:06:40;7.20;;;2.57;;
14516;SDS011;7344;50.864;4.362;2023-03-13T05:09:09;5.03;;;2.73;;
14516;SDS011;7344;50.864;4.362;2023-03-13T05:11:34;6.70;;;2.87;;
14516;SDS011;7344;50.864;4.362;2023-03-13T05:14:00;8.73;;;3.40;;
14516;SDS011;7344;50.864;4.362;2023-03-13T05:16:26;6.77;;;3.00;;
14516;SDS011;7344;50.864;4.362;2023-03-13T05:18:51;7.40;;;2.97;;
14516;SDS011;7344;50.864;4.362;2023-03-13T05:21:17;6.03;;;2.80;;
14516;SDS011;7344;50.864;4.362;2023-03-13T05:23:43;7.57;;;3.27;;
14516;SDS011;7344;50.864;4.362;2023-03-13T05:26:12;6.17;;;3.37;;
14516;SDS011;7344;50.864;4.362;2023-03-13T05:28:37;5.23;;;3.20;;
14516;SDS011;7344;50.864;4.362;2023-03-13T05:31:03;6.77;;;3.03;;
14516;SDS011;7344;50.864;4.362;2023-03-13T05:33:28;4.83;;;3.30;;
14516;SDS011;7344;50.864;4.362;2023-03-13T05:35:54;7.00;;;3.67;;
14516;SDS011;7344;50.864;4.362;2023-03-13T05:38:20;5.50;;;3.17;;
14516;SDS011;7344;50.864;4.362;2023-03-13T05:40:45;8.70;;;3.43;;
14516;SDS011;7344;50.864;4.362;2023-03-13T05:43:13;7.00;;;3.73;;
14516;SDS011;7344;50.864;4.362;2023-03-13T05:45:39;6.67;;;3.17;;
14516;SDS011;7344;50.864;4.362;2023-03-13T05:48:04;6.97;;;3.23;;
14516;SDS011;7344;50.864;4.362;2023-03-13T05:50:30;6.57;;;3.40;;
14516;SDS011;7344;50.864;4.362;2023-03-13T05:53:17;4.07;;;2.80;;
14516;SDS011;7344;50.864;4.362;2023-03-13T05:55:42;6.10;;;3.23;;
14516;SDS011;7344;50.864;4.362;2023-03-13T05:58:08;9.83;;;3.23;;
14516;SDS011;7344;50.864;4.362;2023-03-13T06:00:34;9.53;;;3.60;;
14516;SDS011;7344;50.864;4.362;2023-03-13T06:02:59;7.83;;;3.10;;
14516;SDS011;7344;50.864;4.362;2023-03-13T06:05:25;7.17;;;3.00;;
14516;SDS011;7344;50.864;4.362;2023-03-13T06:07:51;6.03;;;3.10;;
14516;SDS011;7344;50.864;4.362;2023-03-13T06:10:16;9.47;;;3.50;;
14516;SDS011;7344;50.864;4.362;2023-03-13T06:12:42;8.87;;;3.30;;
14516;SDS011;7344;50.864;4.362;2023-03-13T06:15:07;7.23;;;3.53;;
14516;SDS011;7344;50.864;4.362;2023-03-13T06:17:34;8.50;;;3.60;;
14516;SDS011;7344;50.864;4.362;2023-03-13T06:20:00;5.93;;;3.10;;
14516;SDS011;7344;50.864;4.362;2023-03-13T06:22:26;8.17;;;3.17;;
14516;SDS011;7344;50.864;4.362;2023-03-13T06:24:52;9.20;;;3.30;;
14516;SDS011;7344;50.864;4.362;2023-03-13T06:27:17;7.70;;;3.30;;
14516;SDS011;7344;50.864;4.362;2023-03-13T06:29:44;9.00;;;3.20;;
14516;SDS011;7344;50.864;4.362;2023-03-13T06:32:09;11.33;;;3.57;;
14516;SDS011;7344;50.864;4.362;2023-03-13T06:34:35;11.97;;;3.57;;
14516;SDS011;7344;50.864;4.362;2023-03-13T06:37:01;9.93;;;3.70;;
14516;SDS011;7344;50.864;4.362;2023-03-13T06:39:29;6.87;;;3.67;;
14516;SDS011;7344;50.864;4.362;2023-03-13T06:41:54;7.73;;;3.43;;
14516;SDS011;7344;50.864;4.362;2023-03-13T06:44:20;10.57;;;3.60;;
14516;SDS011;7344;50.864;4.362;2023-03-13T06:46:46;7.30;;;3.20;;
14516;SDS011;7344;50.864;4.362;2023-03-13T06:49:11;8.30;;;3.50;;
14516;SDS011;7344;50.864;4.362;2023-03-13T06:51:37;7.50;;;3.70;;
14516;SDS011;7344;50.864;4.362;2023-03-13T06:54:02;6.50;;;3.03;;
14516;SDS011;7344;50.864;4.362;2023-03-13T06:56:31;6.57;;;3.60;;
14516;SDS011;7344;50.864;4.362;2023-03-13T06:58:57;8.67;;;3.10;;
14516;SDS011;7344;50.864;4.362;2023-03-13T07:01:22;8.10;;;3.60;;
14516;SDS011;7344;50.864;4.362;2023-03-13T07:03:51;9.13;;;3.20;;
14516;SDS011;7344;50.864;4.362;2023-03-13T07:06:16;6.90;;;3.40;;
14516;SDS011;7344;50.864;4.362;2023-03-13T07:08:42;8.37;;;3.50;;
14516;SDS011;7344;50.864;4.362;2023-03-13T07:11:09;6.67;;;3.70;;
14516;SDS011;7344;50.864;4.362;2023-03-13T07:13:36;9.43;;;3.70;;
14516;SDS011;7344;50.864;4.362;2023-03-13T07:16:02;12.57;;;3.53;;
14516;SDS011;7344;50.864;4.362;2023-03-13T07:18:29;9.90;;;3.73;;
14516;SDS011;7344;50.864;4.362;2023-03-13T07:20:56;8.30;;;3.53;;
14516;SDS011;7344;50.864;4.362;2023-03-13T07:23:23;8.97;;;3.20;;
14516;SDS011;7344;50.864;4.362;2023-03-13T07:25:54;6.13;;;3.40;;
14516;SDS011;7344;50.864;4.362;2023-03-13T07:28:22;8.00;;;3.60;;
14516;SDS011;7344;50.864;4.362;2023-03-13T07:30:48;9.70;;;3.37;;
14516;SDS011;7344;50.864;4.362;2023-03-13T07:33:14;6.63;;;3.30;;
14516;SDS011;7344;50.864;4.362;2023-03-13T07:35:46;10.00;;;3.37;;
14516;SDS011;7344;50.864;4.362;2023-03-13T07:38:13;6.53;;;3.40;;
14516;SDS011;7344;50.864;4.362;2023-03-13T07:40:38;5.77;;;3.30;;
14516;SDS011;7344;50.864;4.362;2023-03-13T07:43:04;5.47;;;3.03;;
14516;SDS011;7344;50.864;4.362;2023-03-13T07:45:29;6.63;;;3.10;;
14516;SDS011;7344;50.864;4.362;2023-03-13T07:47:55;10.67;;;3.77;;
14516;SDS011;7344;50.864;4.362;2023-03-13T07:50:21;7.27;;;3.40;;
14516;SDS011;7344;50.864;4.362;2023-03-13T07:52:46;6.30;;;3.47;;
14516;SDS011;7344;50.864;4.362;2023-03-13T07:55:12;7.93;;;3.40;;
14516;SDS011;7344;50.864;4.362;2023-03-13T07:57:37;8.33;;;3.70;;
14516;SDS011;7344;50.864;4.362;2023-03-13T08:00:03;6.37;;;3.37;;
14516;SDS011;7344;50.864;4.362;2023-03-13T08:02:33;9.20;;;3.17;;
14516;SDS011;7344;50.864;4.362;2023-03-13T08:04:59;5.13;;;3.43;;
14516;SDS011;7344;50.864;4.362;2023-03-13T08:07:25;5.50;;;3.53;;
14516;SDS011;7344;50.864;4.362;2023-03-13T08:09:50;6.50;;;3.07;;
14516;SDS011;7344;50.864;4.362;2023-03-13T08:12:16;5.20;;;3.40;;
14516;SDS011;7344;50.864;4.362;2023-03-13T08:14:41;7.77;;;3.67;;
14516;SDS011;7344;50.864;4.362;2023-03-13T08:17:07;5.67;;;3.63;;
14516;SDS011;7344;50.864;4.362;2023-03-13T08:19:33;6.37;;;3.37;;
14516;SDS011;7344;50.864;4.362;2023-03-13T08:21:58;4.33;;;2.80;;
14516;SDS011;7344;50.864;4.362;2023-03-13T08:24:24;5.17;;;3.10;;
14516;SDS011;7344;50.864;4.362;2023-03-13T08:26:50;4.77;;;3.20;;
14516;SDS011;7344;50.864;4.362;2023-03-13T08:29:15;4.43;;;3.00;;
14516;SDS011;7344;50.864;4.362;2023-03-13T08:31:42;4.07;;;3.37;;
14516;SDS011;7344;50.864;4.362;2023-03-13T08:34:10;7.33;;;3.33;;
14516;SDS011;7344;50.864;4.362;2023-03-13T08:36:36;5.47;;;3.43;;
14516;SDS011;7344;50.864;4.362;2023-03-13T08:39:12;4.93;;;3.00;;
14516;SDS011;7344;50.864;4.362;2023-03-13T08:41:42;4.27;;;2.90;;
14516;SDS011;7344;50.864;4.362;2023-03-13T08:44:12;6.53;;;3.20;;
14516;SDS011;7344;50.864;4.362;2023-03-13T08:46:39;6.93;;;3.23;;
14516;SDS011;7344;50.864;4.362;2023-03-13T08:49:05;6.47;;;2.90;;
14516;SDS011;7344;50.864;4.362;2023-03-13T08:51:32;4.67;;;2.67;;
14516;SDS011;7344;50.864;4.362;2023-03-13T08:53:58;5.27;;;2.90;;
14516;SDS011;7344;50.864;4.362;2023-03-13T08:56:26;6.00;;;3.10;;
14516;SDS011;7344;50.864;4.362;2023-03-13T08:58:55;5.60;;;2.93;;
14516;SDS011;7344;50.864;4.362;2023-03-13T09:01:23;4.60;;;2.70;;
14516;SDS011;7344;50.864;4.362;2023-03-13T09:03:50;7.23;;;2.93;;
14516;SDS011;7344;50.864;4.362;2023-03-13T09:06:17;6.30;;;3.03;;
14516;SDS011;7344;50.864;4.362;2023-03-13T09:08:43;3.87;;;2.70;;
14516;SDS011;7344;50.864;4.362;2023-03-13T09:11:09;6.73;;;2.47;;
14516;SDS011;7344;50.864;4.362;2023-03-13T09:13:40;3.40;;;2.70;;
14516;SDS011;7344;50.864;4.362;2023-03-13T09:16:09;9.00;;;2.80;;
14516;SDS011;7344;50.864;4.362;2023-03-13T09:18:37;7.27;;;2.77;;
14516;SDS011;7344;50.864;4.362;2023-03-13T09:21:05;6.07;;;3.10;;
14516;SDS011;7344;50.864;4.362;2023-03-13T09:23:33;2.58;;;2.38;;
14516;SDS011;7344;50.864;4.362;2023-03-13T09:25:59;4.95;;;2.50;;
14516;SDS011;7344;50.864;4.362;2023-03-13T09:28:25;4.05;;;2.17;;
14516;SDS011;7344;50.864;4.362;2023-03-13T09:30:51;3.53;;;2.75;;
14516;SDS011;7344;50.864;4.362;2023-03-13T09:33:17;5.27;;;2.30;;
14516;SDS011;7344;50.864;4.362;2023-03-13T09:35:44;2.75;;;2.08;;
14516;SDS011;7344;50.864;4.362;2023-03-13T09:38:15;5.85;;;2.30;;
14516;SDS011;7344;50.864;4.362;2023-03-13T09:40:43;4.88;;;2.28;;
14516;SDS011;7344;50.864;4.362;2023-03-13T09:43:34;3.83;;;2.23;;
14516;SDS011;7344;50.864;4.362;2023-03-13T09:46:10;3.00;;;2.13;;
14516;SDS011;7344;50.864;4.362;2023-03-13T09:48:44;3.70;;;2.17;;
14516;SDS011;7344;50.864;4.362;2023-03-13T09:53:52;5.90;;;2.17;;
14516;SDS011;7344;50.864;4.362;2023-03-13T09:56:31;2.90;;;1.80;;
14516;SDS011;7344;50.864;4.362;2023-03-13T09:59:10;4.60;;;1.88;;
14516;SDS011;7344;50.864;4.362;2023-03-13T10:01:42;4.00;;;2.10;;
14516;SDS011;7344;50.864;4.362;2023-03-13T10:06:46;3.50;;;2.00;;
14516;SDS011;7344;50.864;4.362;2023-03-13T10:09:16;5.32;;;2.05;;
14516;SDS011;7344;50.864;4.362;2023-03-13T10:11:50;2.55;;;1.88;;
14516;SDS011;7344;50.864;4.362;2023-03-13T10:17:04;3.20;;;1.55;;
14516;SDS011;7344;50.864;4.362;2023-03-13T10:19:40;2.05;;;1.85;;
14516;SDS011;7344;50.864;4.362;2023-03-13T10:22:10;3.45;;;2.10;;
14516;SDS011;7344;50.864;4.362;2023-03-13T10:24:49;3.97;;;1.85;;
14516;SDS011;7344;50.864;4.362;2023-03-13T10:27:19;5.13;;;1.83;;
14516;SDS011;7344;50.864;4.362;2023-03-13T10:29:45;3.47;;;1.90;;
14516;SDS011;7344;50.864;4.362;2023-03-13T10:32:12;4.13;;;1.80;;
14516;SDS011;7344;50.864;4.362;2023-03-13T10:34:50;5.13;;;2.08;;
14516;SDS011;7344;50.864;4.362;2023-03-13T10:37:27;2.05;;;1.75;;
14516;SDS011;7344;50.864;4.362;2023-03-13T10:39:54;3.15;;;1.92;;
14516;SDS011;7344;50.864;4.362;2023-03-13T10:42:35;5.13;;;2.33;;
14516;SDS011;7344;50.864;4.362;2023-03-13T10:45:06;2.38;;;2.00;;
14516;SDS011;7344;50.864;4.362;2023-03-13T10:47:38;4.70;;;1.80;;
14516;SDS011;7344;50.864;4.362;2023-03-13T10:50:03;2.72;;;1.85;;
14516;SDS011;7344;50.864;4.362;2023-03-13T10:52:42;4.05;;;1.80;;
14516;SDS011;7344;50.864;4.362;2023-03-13T10:55:21;5.75;;;1.60;;
14516;SDS011;7344;50.864;4.362;2023-03-13T10:57:58;5.35;;;1.73;;
14516;SDS011;7344;50.864;4.362;2023-03-13T11:02:55;2.60;;;1.85;;
14516;SDS011;7344;50.864;4.362;2023-03-13T11:05:40;3.63;;;1.60;;
14516;SDS011;7344;50.864;4.362;2023-03-13T11:10:50;4.57;;;2.05;;
14516;SDS011;7344;50.864;4.362;2023-03-13T11:13:36;3.28;;;1.80;;
14516;SDS011;7344;50.864;4.362;2023-03-13T11:27:06;3.63;;;1.88;;
14516;SDS011;7344;50.864;4.362;2023-03-13T11:32:25;4.13;;;2.00;;
14516;SDS011;7344;50.864;4.362;2023-03-13T11:37:52;3.92;;;3.13;;
14516;SDS011;7344;50.864;4.362;2023-03-13T11:40:24;4.35;;;2.20;;
14516;SDS011;7344;50.864;4.362;2023-03-13T11:48:36;2.28;;;1.20;;
14516;SDS011;7344;50.864;4.362;2023-03-13T11:51:10;1.90;;;1.60;;
14516;SDS011;7344;50.864;4.362;2023-03-13T11:57:41;4.43;;;1.50;;
14516;SDS011;7344;50.864;4.362;2023-03-13T12:02:35;2.95;;;1.95;;
14516;SDS011;7344;50.864;4.362;2023-03-13T12:05:10;2.88;;;1.60;;
14516;SDS011;7344;50.864;4.362;2023-03-13T12:08:01;7.90;;;1.55;;
14516;SDS011;7344;50.864;4.362;2023-03-13T12:10:42;5.85;;;1.70;;
14516;SDS011;7344;50.864;4.362;2023-03-13T12:16:00;5.35;;;2.28;;
14516;SDS011;7344;50.864;4.362;2023-03-13T12:18:39;4.90;;;1.70;;
14516;SDS011;7344;50.864;4.362;2023-03-13T12:24:18;2.80;;;1.75;;
14516;SDS011;7344;50.864;4.362;2023-03-13T12:32:54;3.05;;;1.40;;
14516;SDS011;7344;50.864;4.362;2023-03-13T12:35:26;3.63;;;1.73;;
14516;SDS011;7344;50.864;4.362;2023-03-13T12:40:37;5.57;;;1.55;;
14516;SDS011;7344;50.864;4.362;2023-03-13T12:43:18;1.95;;;1.30;;
14516;SDS011;7344;50.864;4.362;2023-03-13T12:45:53;4.13;;;1.83;;
14516;SDS011;7344;50.864;4.362;2023-03-13T12:59:20;2.85;;;1.60;;
14516;SDS011;7344;50.864;4.362;2023-03-13T13:01:49;3.45;;;1.30;;
14516;SDS011;7344;50.864;4.362;2023-03-13T13:04:21;3.10;;;1.50;;
14516;SDS011;7344;50.864;4.362;2023-03-13T13:09:58;1.50;;;1.40;;
14516;SDS011;7344;50.864;4.362;2023-03-13T13:12:33;4.82;;;1.55;;
14516;SDS011;7344;50.864;4.362;2023-03-13T13:15:01;3.88;;;1.60;;
14516;SDS011;7344;50.864;4.362;2023-03-13T13:20:25;2.70;;;1.48;;
14516;SDS011;7344;50.864;4.362;2023-03-13T13:22:50;1.70;;;1.58;;
14516;SDS011;7344;50.864;4.362;2023-03-13T13:27:51;4.03;;;1.70;;
14516;SDS011;7344;50.864;4.362;2023-03-13T13:32:44;4.00;;;1.77;;
14516;SDS011;7344;50.864;4.362;2023-03-13T13:37:36;4.35;;;1.67;;
14516;SDS011;7344;50.864;4.362;2023-03-13T13:42:46;3.30;;;1.45;;
14516;SDS011;7344;50.864;4.362;2023-03-13T13:45:30;3.70;;;1.45;;
14516;SDS011;7344;50.864;4.362;2023-03-13T13:48:26;5.38;;;1.58;;
14516;SDS011;7344;50.864;4.362;2023-03-13T13:56:27;6.32;;;1.75;;
14516;SDS011;7344;50.864;4.362;2023-03-13T14:05:17;4.43;;;1.88;;
14516;SDS011;7344;50.864;4.362;2023-03-13T14:07:23;3.28;;;1.65;;
14516;SDS011;7344;50.864;4.362;2023-03-13T14:10:16;4.30;;;1.83;;
14516;SDS011;7344;50.864;4.362;2023-03-13T14:12:55;7.30;;;2.00;;
14516;SDS011;7344;50.864;4.362;2023-03-13T14:15:26;6.70;;;2.08;;
14516;SDS011;7344;50.864;4.362;2023-03-13T14:17:59;3.53;;;1.88;;
14516;SDS011;7344;50.864;4.362;2023-03-13T14:20:36;7.72;;;2.10;;
14516;SDS011;7344;50.864;4.362;2023-03-13T14:23:27;4.72;;;2.58;;
14516;SDS011;7344;50.864;4.362;2023-03-13T14:26:14;24.08;;;15.13;;
14516;SDS011;7344;50.864;4.362;2023-03-13T14:28:43;5.07;;;2.78;;
14516;SDS011;7344;50.864;4.362;2023-03-13T14:31:24;9.48;;;4.00;;
14516;SDS011;7344;50.864;4.362;2023-03-13T14:33:54;3.17;;;1.85;;
14516;SDS011;7344;50.864;4.362;2023-03-13T14:36:24;4.10;;;2.20;;
14516;SDS011;7344;50.864;4.362;2023-03-13T14:38:51;9.05;;;4.10;;
14516;SDS011;7344;50.864;4.362;2023-03-13T14:41:28;21.55;;;18.10;;
14516;SDS011;7344;50.864;4.362;2023-03-13T14:44:02;4.18;;;2.03;;
14516;SDS011;7344;50.864;4.362;2023-03-13T14:46:38;5.85;;;3.35;;
14516;SDS011;7344;50.864;4.362;2023-03-13T14:49:07;5.68;;;2.25;;
14516;SDS011;7344;50.864;4.362;2023-03-13T14:51:56;4.35;;;2.25;;
14516;SDS011;7344;50.864;4.362;2023-03-13T14:54:24;5.72;;;2.20;;
14516;SDS011;7344;50.864;4.362;2023-03-13T14:57:00;6.28;;;2.28;;
14516;SDS011;7344;50.864;4.362;2023-03-13T14:59:36;6.65;;;2.50;;
14516;SDS011;7344;50.864;4.362;2023-03-13T15:02:09;4.03;;;2.10;;
14516;SDS011;7344;50.864;4.362;2023-03-13T15:04:49;4.85;;;2.08;;
14516;SDS011;7344;50.864;4.362;2023-03-13T15:07:26;6.03;;;2.13;;
14516;SDS011;7344;50.864;4.362;2023-03-13T15:12:49;6.15;;;1.70;;
14516;SDS011;7344;50.864;4.362;2023-03-13T15:15:15;6.07;;;2.50;;
14516;SDS011;7344;50.864;4.362;2023-03-13T15:17:41;3.50;;;2.10;;
14516;SDS011;7344;50.864;4.362;2023-03-13T15:20:09;6.70;;;2.13;;
14516;SDS011;7344;50.864;4.362;2023-03-13T15:22:37;7.15;;;2.05;;
14516;SDS011;7344;50.864;4.362;2023-03-13T15:25:05;5.30;;;2.20;;
14516;SDS011;7344;50.864;4.362;2023-03-13T15:27:43;3.78;;;2.25;;
14516;SDS011;7344;50.864;4.362;2023-03-13T15:30:12;7.38;;;2.40;;
14516;SDS011;7344;50.864;4.362;2023-03-13T15:32:47;6.60;;;2.25;;
14516;SDS011;7344;50.864;4.362;2023-03-13T15:35:27;3.13;;;2.00;;
14516;SDS011;7344;50.864;4.362;2023-03-13T15:37:55;6.27;;;2.20;;
14516;SDS011;7344;50.864;4.362;2023-03-13T15:40:28;5.33;;;2.33;;
14516;SDS011;7344;50.864;4.362;2023-03-13T15:42:54;6.90;;;2.60;;
14516;SDS011;7344;50.864;4.362;2023-03-13T15:45:20;3.50;;;2.58;;
14516;SDS011;7344;50.864;4.362;2023-03-13T15:47:46;8.40;;;2.87;;
14516;SDS011;7344;50.864;4.362;2023-03-13T15:50:13;5.82;;;2.35;;
14516;SDS011;7344;50.864;4.362;2023-03-13T15:52:40;8.40;;;2.63;;
14516;SDS011;7344;50.864;4.362;2023-03-13T15:55:06;8.63;;;2.67;;
14516;SDS011;7344;50.864;4.362;2023-03-13T15:57:34;5.37;;;2.77;;
14516;SDS011;7344;50.864;4.362;2023-03-13T16:00:13;7.30;;;2.60;;
14516;SDS011;7344;50.864;4.362;2023-03-13T16:02:43;6.47;;;2.80;;
14516;SDS011;7344;50.864;4.362;2023-03-13T16:05:08;7.07;;;2.23;;
14516;SDS011;7344;50.864;4.362;2023-03-13T16:07:34;6.30;;;3.23;;
14516;SDS011;7344;50.864;4.362;2023-03-13T16:10:00;8.33;;;5.20;;
14516;SDS011;7344;50.864;4.362;2023-03-13T16:12:25;5.37;;;2.20;;
14516;SDS011;7344;50.864;4.362;2023-03-13T16:14:51;6.77;;;3.43;;
14516;SDS011;7344;50.864;4.362;2023-03-13T16:17:18;6.30;;;2.17;;
14516;SDS011;7344;50.864;4.362;2023-03-13T16:19:46;8.77;;;2.87;;
14516;SDS011;7344;50.864;4.362;2023-03-13T16:22:12;5.60;;;2.93;;
14516;SDS011;7344;50.864;4.362;2023-03-13T16:24:42;7.23;;;3.07;;
14516;SDS011;7344;50.864;4.362;2023-03-13T16:27:15;10.30;;;3.67;;
14516;SDS011;7344;50.864;4.362;2023-03-13T16:29:42;9.73;;;3.07;;
14516;SDS011;7344;50.864;4.362;2023-03-13T16:32:10;7.97;;;3.07;;
14516;SDS011;7344;50.864;4.362;2023-03-13T16:34:37;11.63;;;4.10;;
14516;SDS011;7344;50.864;4.362;2023-03-13T16:37:09;7.37;;;2.93;;
14516;SDS011;7344;50.864;4.362;2023-03-13T16:39:42;6.43;;;3.97;;
14516;SDS011;7344;50.864;4.362;2023-03-13T16:42:08;10.77;;;3.27;;
14516;SDS011;7344;50.864;4.362;2023-03-13T16:44:34;6.50;;;2.97;;
14516;SDS011;7344;50.864;4.362;2023-03-13T16:47:00;6.43;;;2.70;;
14516;SDS011;7344;50.864;4.362;2023-03-13T16:49:29;12.33;;;6.87;;
14516;SDS011;7344;50.864;4.362;2023-03-13T16:51:55;11.35;;;7.05;;
14516;SDS011;7344;50.864;4.362;2023-03-13T16:54:20;5.50;;;2.77;;
14516;SDS011;7344;50.864;4.362;2023-03-13T16:56:46;15.10;;;10.38;;
14516;SDS011;7344;50.864;4.362;2023-03-13T16:59:12;6.27;;;2.80;;